Time;durP1;ratioP1;P1;durP2;ratioP2;P2;SDS_P1;SDS_P2;PMS_P1;PMS_P2;Temp;Humidity;BMP_temperature;BMP_pressure;BME280_temperature;BME280_humidity;BME280_pressure;Samples;Min_cycle;Max_cycle;Signal;HPM_P1;HPM_P2
2023/04/11 00:02:23;;;;;;;10.93;4.32;;;;;;;9.54;100.00;100801.59;5050299;28;20037;-77
2023/04/11 00:04:53;;;;;;;14.57;4.03;;;;;;;9.51;100.00;100797.50;5005440;28;1287207;-77
2023/04/11 00:07:19;;;;;;;15.57;5.10;;;;;;;9.44;100.00;100786.75;5051523;28;20900;-77
2023/04/11 00:09:44;;;;;;;17.70;4.30;;;;;;;9.48;100.00;100795.19;5050232;28;20135;-77
2023/04/11 00:12:10;;;;;;;15.05;5.30;;;;;;;9.49;100.00;100801.34;5051305;28;20056;-77
2023/04/11 00:14:35;;;;;;;14.20;4.97;;;;;;;9.45;100.00;100798.22;5051149;28;20025;-78
2023/04/11 00:17:00;;;;;;;17.20;4.00;;;;;;;9.41;100.00;100802.31;5050293;28;20063;-77
2023/04/11 00:19:28;;;;;;;24.27;5.60;;;;;;;9.30;100.00;100797.47;5051210;28;20464;-77
2023/04/11 00:21:59;;;;;;;20.23;5.88;;;;;;;9.24;100.00;100807.03;5051028;28;20033;-78
2023/04/11 00:24:25;;;;;;;14.60;3.75;;;;;;;9.16;100.00;100801.84;5050843;28;20029;-77
2023/04/11 00:26:51;;;;;;;19.27;5.88;;;;;;;9.17;100.00;100811.47;5050956;28;20036;-78
2023/04/11 00:29:16;;;;;;;13.57;5.00;;;;;;;9.14;100.00;100807.34;5051248;28;20048;-77
2023/04/11 00:31:41;;;;;;;24.60;5.93;;;;;;;9.13;100.00;100815.50;5049707;28;20028;-77
2023/04/11 00:34:06;;;;;;;22.80;6.88;;;;;;;9.12;100.00;100813.88;5051084;28;20036;-77
2023/04/11 00:36:32;;;;;;;18.15;6.75;;;;;;;9.10;100.00;100811.41;5051046;28;20504;-78
2023/04/11 00:39:00;;;;;;;19.85;4.70;;;;;;;9.10;100.00;100813.25;5050859;28;20089;-77
2023/04/11 00:41:25;;;;;;;17.30;6.47;;;;;;;9.03;100.00;100812.34;5050769;28;20056;-78
2023/04/11 00:43:50;;;;;;;22.95;6.72;;;;;;;8.95;100.00;100815.91;5050785;28;20480;-78
2023/04/11 00:46:16;;;;;;;16.23;3.95;;;;;;;8.87;100.00;100816.03;5049656;28;20090;-77
2023/04/11 00:48:43;;;;;;;24.30;5.18;;;;;;;8.81;100.00;100817.59;5049359;28;20480;-77
2023/04/11 00:51:08;;;;;;;16.48;6.28;;;;;;;8.74;100.00;100822.81;5050476;28;20643;-77
2023/04/11 00:53:36;;;;;;;23.15;6.75;;;;;;;8.65;100.00;100804.53;5050254;28;20111;-77
2023/04/11 00:56:01;;;;;;;19.95;5.38;;;;;;;8.66;100.00;100814.13;5050600;28;20028;-77
2023/04/11 00:58:27;;;;;;;13.32;4.50;;;;;;;8.62;100.00;100816.34;5049160;28;20611;-77
2023/04/11 01:00:53;;;;;;;20.58;8.20;;;;;;;8.59;100.00;100815.88;5050397;28;20031;-77
2023/04/11 01:03:18;;;;;;;23.42;7.43;;;;;;;8.58;100.00;100817.72;5050166;28;20416;-77
2023/04/11 01:05:45;;;;;;;24.33;5.28;;;;;;;8.60;100.00;100814.88;5048860;28;20053;-77
2023/04/11 01:08:12;;;;;;;18.83;5.63;;;;;;;8.55;100.00;100804.81;5050070;28;20048;-77
2023/04/11 01:10:41;;;;;;;22.33;6.35;;;;;;;8.53;100.00;100812.13;5050365;28;20040;-77
2023/04/11 01:13:08;;;;;;;22.65;7.40;;;;;;;8.55;100.00;100813.59;5050243;28;20025;-78
2023/04/11 01:15:34;;;;;;;18.10;4.78;;;;;;;8.53;100.00;100817.44;5050212;28;20036;-77
2023/04/11 01:18:00;;;;;;;23.83;5.85;;;;;;;8.54;100.00;100811.09;5048751;28;20032;-77
2023/04/11 01:20:28;;;;;;;20.20;5.53;;;;;;;8.54;100.00;100816.41;5049932;28;20392;-77
2023/04/11 01:22:55;;;;;;;24.75;7.45;;;;;;;8.66;100.00;100819.44;5050234;28;20044;-78
2023/04/11 01:25:22;;;;;;;15.43;4.32;;;;;;;8.66;100.00;100806.97;5050059;28;20047;-77
2023/04/11 01:27:47;;;;;;;19.35;5.05;;;;;;;8.61;100.00;100801.38;5049814;28;20111;-78
2023/04/11 01:30:13;;;;;;;18.63;4.88;;;;;;;8.61;100.00;100816.53;5049439;28;20032;-77
2023/04/11 01:32:38;;;;;;;19.27;5.97;;;;;;;8.60;100.00;100812.22;5048796;28;20025;-77
2023/04/11 01:35:06;;;;;;;19.02;4.60;;;;;;;8.56;100.00;100809.91;5050027;28;20033;-77
2023/04/11 01:37:31;;;;;;;19.83;4.15;;;;;;;8.60;100.00;100806.91;5049816;28;21031;-77
2023/04/11 01:39:57;;;;;;;21.08;4.72;;;;;;;8.55;100.00;100807.47;5049927;28;20032;-77
2023/04/11 01:42:23;;;;;;;21.63;4.55;;;;;;;8.56;100.00;100820.53;5050154;28;20025;-77
2023/04/11 01:44:53;;;;;;;25.80;4.57;;;;;;;8.54;100.00;100819.06;5049920;28;20487;-77
2023/04/11 01:47:18;;;;;;;17.67;4.85;;;;;;;8.48;100.00;100825.13;5049496;28;20052;-77
2023/04/11 01:49:44;;;;;;;28.02;7.15;;;;;;;8.50;100.00;100833.75;5049627;28;20056;-77
2023/04/11 01:52:09;;;;;;;23.08;5.05;;;;;;;8.47;100.00;100831.47;5049891;28;20032;-77
2023/04/11 01:54:35;;;;;;;20.75;4.95;;;;;;;8.48;100.00;100835.78;5049833;28;20032;-77
2023/04/11 01:57:00;;;;;;;17.83;3.90;;;;;;;8.48;100.00;100831.28;5048438;28;20041;-77
2023/04/11 01:59:26;;;;;;;16.42;5.35;;;;;;;8.44;100.00;100839.81;5049938;28;20025;-76
2023/04/11 02:01:51;;;;;;;28.17;6.88;;;;;;;8.44;100.00;100842.47;5049437;28;20036;-76
2023/04/11 02:04:16;;;;;;;29.05;7.00;;;;;;;8.37;100.00;100841.53;5049687;28;20388;-77
2023/04/11 02:06:42;;;;;;;28.50;7.38;;;;;;;8.35;100.00;100847.81;5047887;28;20491;-77
2023/04/11 02:09:07;;;;;;;14.13;3.85;;;;;;;8.31;100.00;100849.22;5049525;28;20039;-76
2023/04/11 02:11:32;;;;;;;29.35;5.05;;;;;;;8.24;100.00;100842.16;5048292;28;20033;-77
2023/04/11 02:13:58;;;;;;;25.83;6.05;;;;;;;8.28;100.00;100846.91;5049644;28;20033;-77
2023/04/11 02:16:24;;;;;;;22.98;4.93;;;;;;;8.28;100.00;100844.25;5049603;28;20482;-77
2023/04/11 02:18:51;;;;;;;17.45;3.50;;;;;;;8.30;100.00;100849.38;5048753;28;20427;-77
2023/04/11 02:21:16;;;;;;;24.58;6.32;;;;;;;8.28;100.00;100852.22;5048198;28;20025;-76
2023/04/11 02:23:42;;;;;;;21.30;6.95;;;;;;;8.28;100.00;100838.94;5049312;28;20091;-76
2023/04/11 02:26:07;;;;;;;26.52;6.97;;;;;;;8.28;100.00;100851.41;5049493;28;20021;-77
2023/04/11 02:28:33;;;;;;;19.20;4.80;;;;;;;8.21;100.00;100847.81;5049524;28;20060;-76
2023/04/11 02:30:58;;;;;;;17.65;4.25;;;;;;;8.25;100.00;100857.91;5049285;28;20041;-77
2023/04/11 02:33:25;;;;;;;20.45;5.07;;;;;;;8.25;100.00;100865.03;5049227;28;20069;-76
2023/04/11 02:35:50;;;;;;;24.27;5.00;;;;;;;8.29;100.00;100863.69;5049289;28;20029;-77
2023/04/11 02:38:16;;;;;;;18.20;4.68;;;;;;;8.31;100.00;100856.38;5049307;28;20028;-76
2023/04/11 02:40:41;;;;;;;17.38;5.05;;;;;;;8.31;100.00;100848.38;5033578;28;20506;-77
2023/04/11 02:43:06;;;;;;;16.48;4.70;;;;;;;8.36;100.00;100861.97;5052801;28;20028;-77
2023/04/11 02:45:31;;;;;;;19.05;3.80;;;;;;;8.34;100.00;100859.47;5052978;28;20025;-77
2023/04/11 02:47:57;;;;;;;16.75;4.03;;;;;;;8.39;100.00;100863.44;5051247;28;20037;-76
2023/04/11 02:50:25;;;;;;;20.05;5.63;;;;;;;8.37;100.00;100863.59;5035114;28;20116;-76
2023/04/11 02:52:51;;;;;;;18.52;4.75;;;;;;;8.34;100.00;100862.13;5052713;28;20515;-77
2023/04/11 02:55:17;;;;;;;13.77;4.13;;;;;;;8.37;100.00;100860.13;5052899;28;20119;-77
2023/04/11 02:57:42;;;;;;;16.88;4.38;;;;;;;8.35;100.00;100863.75;5050709;28;20116;-77
2023/04/11 03:00:08;;;;;;;22.88;4.28;;;;;;;8.30;100.00;100873.28;5052774;28;20066;-77
2023/04/11 03:02:34;;;;;;;15.70;4.55;;;;;;;8.23;100.00;100873.22;5052757;28;20032;-77
2023/04/11 03:05:02;;;;;;;22.45;4.43;;;;;;;8.20;100.00;100872.72;5052597;28;20061;-77
2023/04/11 03:07:31;;;;;;;20.13;4.18;;;;;;;8.17;100.00;100865.13;5052010;28;20392;-76
2023/04/11 03:09:57;;;;;;;20.48;3.38;;;;;;;8.13;100.00;100880.59;5051802;28;20021;-77
2023/04/11 03:12:22;;;;;;;19.00;3.47;;;;;;;8.08;100.00;100870.50;5052318;28;20170;-77
2023/04/11 03:14:48;;;;;;;21.48;5.88;;;;;;;8.03;100.00;100869.41;5052648;28;20606;-77
2023/04/11 03:17:13;;;;;;;19.67;3.90;;;;;;;8.00;100.00;100877.72;5050969;28;20064;-77
2023/04/11 03:19:38;;;;;;;25.10;4.30;;;;;;;7.93;100.00;100877.59;5052187;28;20036;-77
2023/04/11 03:22:04;;;;;;;18.45;5.38;;;;;;;7.78;100.00;100863.44;5052239;28;20032;-77
2023/04/11 03:24:31;;;;;;;11.75;2.45;;;;;;;7.84;100.00;100884.00;5052243;28;20033;-77
2023/04/11 03:26:57;;;;;;;17.25;2.95;;;;;;;7.77;100.00;100875.91;5052152;28;20067;-77
2023/04/11 03:29:23;;;;;;;14.25;3.67;;;;;;;7.81;100.00;100887.84;5052312;28;20068;-77
2023/04/11 03:31:48;;;;;;;18.08;3.65;;;;;;;7.83;100.00;100890.31;5051963;28;20044;-76
2023/04/11 03:34:13;;;;;;;18.35;3.17;;;;;;;7.90;100.00;100900.03;5051948;28;20468;-76
2023/04/11 03:36:39;;;;;;;14.63;2.78;;;;;;;7.95;100.00;100904.00;5052006;28;20028;-77
2023/04/11 03:39:04;;;;;;;13.20;2.30;;;;;;;7.97;100.00;100905.47;5051998;28;20063;-76
2023/04/11 03:41:30;;;;;;;12.23;2.88;;;;;;;8.01;100.00;100903.28;5051800;28;20424;-77
2023/04/11 03:43:55;;;;;;;13.57;2.92;;;;;;;8.00;100.00;100906.94;5051719;28;20503;-77
2023/04/11 03:46:21;;;;;;;22.30;2.90;;;;;;;8.03;100.00;100912.72;5051571;28;20055;-77
2023/04/11 03:48:46;;;;;;;8.93;3.28;;;;;;;8.09;100.00;100908.53;5051764;28;20433;-77
2023/04/11 03:51:11;;;;;;;14.05;2.53;;;;;;;8.11;100.00;100914.47;5050803;28;20037;-76
2023/04/11 03:53:37;;;;;;;13.32;2.70;;;;;;;8.13;100.00;100915.97;5051370;28;20040;-77
2023/04/11 03:56:03;;;;;;;18.48;2.40;;;;;;;8.13;100.00;100912.47;5051600;28;20024;-77
2023/04/11 03:58:28;;;;;;;11.52;2.97;;;;;;;8.10;100.00;100920.81;5051693;28;20054;-77
2023/04/11 04:00:54;;;;;;;15.32;2.92;;;;;;;8.16;100.00;100920.09;5049228;28;20128;-77
2023/04/11 04:03:19;;;;;;;9.98;1.92;;;;;;;8.15;100.00;100934.38;5051551;28;20771;-77
2023/04/11 04:05:45;;;;;;;13.80;2.20;;;;;;;8.16;100.00;100930.72;5051478;28;20061;-77
2023/04/11 04:08:10;;;;;;;13.75;2.85;;;;;;;8.11;100.00;100920.63;5051210;28;20037;-76
2023/04/11 04:10:35;;;;;;;9.95;2.50;;;;;;;8.16;100.00;100928.06;5051333;28;20086;-77
2023/04/11 04:13:01;;;;;;;10.45;2.13;;;;;;;8.11;100.00;100917.13;5051496;28;20033;-77
2023/04/11 04:15:26;;;;;;;10.63;2.75;;;;;;;8.12;100.00;100926.75;5051103;28;20494;-77
2023/04/11 04:17:52;;;;;;;11.35;4.07;;;;;;;8.12;100.00;100924.09;5051180;28;20029;-77
2023/04/11 04:20:17;;;;;;;10.90;2.97;;;;;;;8.11;100.00;100914.47;5051003;28;20122;-77
2023/04/11 04:22:46;;;;;;;11.30;1.75;;;;;;;8.06;100.00;100920.31;5049781;28;20069;-77
2023/04/11 04:25:14;;;;;;;13.25;1.92;;;;;;;7.99;100.00;100923.88;5051223;28;20025;-77
2023/04/11 04:27:43;;;;;;;9.70;1.83;;;;;;;8.03;100.00;100933.16;5050995;28;20025;-77
2023/04/11 04:30:10;;;;;;;17.98;3.42;;;;;;;7.93;100.00;100940.53;5050899;28;20032;-77
2023/04/11 04:32:35;;;;;;;11.43;2.17;;;;;;;7.93;100.00;100945.84;5050926;28;20388;-77
2023/04/11 04:35:01;;;;;;;11.27;3.33;;;;;;;7.90;100.00;100945.19;5050974;28;20030;-77
2023/04/11 04:37:26;;;;;;;14.57;2.10;;;;;;;7.86;100.00;100946.56;5051074;28;20056;-76
2023/04/11 04:40:00;;;;;;;10.13;2.20;;;;;;;7.83;100.00;100951.38;5050031;28;20033;-77
2023/04/11 04:42:28;;;;;;;10.05;2.10;;;;;;;7.76;100.00;100959.22;5049957;28;20029;-77
2023/04/11 04:44:54;;;;;;;15.15;1.85;;;;;;;7.67;100.00;100966.38;5050470;28;20103;-76
2023/04/11 04:47:28;;;;;;;8.52;1.80;;;;;;;7.63;100.00;100966.94;5050645;28;20062;-77
2023/04/11 04:49:54;;;;;;;11.70;2.00;;;;;;;7.55;100.00;100970.47;5050548;28;20036;-77
2023/04/11 04:52:20;;;;;;;13.32;2.92;;;;;;;7.50;100.00;100962.19;5049768;28;20132;-77
2023/04/11 04:54:45;;;;;;;15.32;3.53;;;;;;;7.46;100.00;100967.00;5050411;28;20119;-78
2023/04/11 04:57:11;;;;;;;10.82;2.90;;;;;;;7.39;100.00;100971.38;5049343;28;20052;-77
2023/04/11 04:59:36;;;;;;;10.70;2.55;;;;;;;7.38;100.00;100982.97;5050001;28;20195;-77
2023/04/11 05:02:02;;;;;;;9.63;2.00;;;;;;;7.34;100.00;100986.16;5049401;28;20376;-78
2023/04/11 05:04:28;;;;;;;12.60;3.55;;;;;;;7.33;100.00;100993.25;5036589;28;20053;-78
2023/04/11 05:06:54;;;;;;;8.75;2.78;;;;;;;7.28;100.00;100992.13;5035077;28;20982;-78
2023/04/11 05:09:19;;;;;;;13.18;3.33;;;;;;;7.25;100.00;101002.06;5037159;28;20115;-78
2023/04/11 05:11:44;;;;;;;11.27;2.53;;;;;;;7.30;100.00;101008.72;5035937;28;20119;-77
2023/04/11 05:14:10;;;;;;;9.93;2.97;;;;;;;7.24;100.00;100994.31;5034929;28;20041;-79
2023/04/11 05:16:37;;;;;;;10.88;3.03;;;;;;;7.25;100.00;100995.94;5036572;28;20041;-78
2023/04/11 05:19:03;;;;;;;9.60;2.92;;;;;;;7.32;100.00;101006.72;5036122;28;20085;-76
2023/04/11 05:21:28;;;;;;;13.75;2.50;;;;;;;7.34;100.00;101010.84;5028648;28;21430;-77
2023/04/11 05:23:53;;;;;;;14.13;3.45;;;;;;;7.39;100.00;101003.22;5035425;28;20032;-76
2023/04/11 05:26:19;;;;;;;10.73;2.55;;;;;;;7.47;100.00;101013.78;5036055;28;20052;-77
2023/04/11 05:28:44;;;;;;;11.18;3.08;;;;;;;7.40;100.00;100985.47;5035930;28;20036;-77
2023/04/11 05:31:10;;;;;;;16.55;2.92;;;;;;;7.43;100.00;101003.69;5035672;28;20104;-78
2023/04/11 05:33:37;;;;;;;10.82;2.38;;;;;;;7.54;100.00;101023.69;5035795;28;20392;-75
2023/04/11 05:36:03;;;;;;;6.60;1.83;;;;;;;7.53;100.00;101024.72;5034718;28;20091;-74
2023/04/11 05:38:28;;;;;;;11.88;2.03;;;;;;;7.56;100.00;101024.38;5035434;28;20087;-72
2023/04/11 05:40:53;;;;;;;7.82;2.60;;;;;;;7.55;100.00;101030.69;5035854;28;20017;-76
2023/04/11 05:43:19;;;;;;;18.67;3.10;;;;;;;7.59;100.00;101035.44;5035017;28;20021;-76
2023/04/11 05:45:46;;;;;;;11.05;2.15;;;;;;;7.69;100.00;101043.22;5034580;28;20812;-76
2023/04/11 05:48:13;;;;;;;7.60;2.05;;;;;;;7.72;100.00;101042.03;5035766;28;20025;-76
2023/04/11 05:50:39;;;;;;;8.90;2.78;;;;;;;7.72;100.00;101042.88;5035025;28;20033;-76
2023/04/11 05:53:04;;;;;;;11.18;1.90;;;;;;;7.79;100.00;101046.50;5035794;28;20492;-79
2023/04/11 05:55:29;;;;;;;7.18;2.78;;;;;;;7.85;100.00;101048.44;5034122;28;20056;-81
2023/04/11 05:57:55;;;;;;;9.40;2.55;;;;;;;8.04;100.00;101052.50;5033914;28;20025;-79
2023/04/11 06:00:21;;;;;;;9.20;2.90;;;;;;;8.41;100.00;101061.59;5035957;28;20033;-79
2023/04/11 06:02:47;;;;;;;9.32;3.63;;;;;;;8.44;100.00;101055.91;5035949;28;20025;-79
2023/04/11 06:05:15;;;;;;;12.07;2.65;;;;;;;8.60;100.00;101059.47;5035160;28;20045;-76
2023/04/11 06:07:40;;;;;;;14.55;2.85;;;;;;;8.66;100.00;101064.88;5035592;28;20112;-80
2023/04/11 06:10:07;;;;;;;14.68;2.95;;;;;;;8.74;100.00;101075.44;5018536;28;20029;-79
2023/04/11 06:12:32;;;;;;;8.13;2.10;;;;;;;8.79;100.00;101064.28;5035840;28;20052;-79
2023/04/11 06:14:58;;;;;;;11.13;1.98;;;;;;;8.85;100.00;101076.84;5036676;28;21663;-79
2023/04/11 06:17:24;;;;;;;9.45;2.33;;;;;;;8.92;100.00;101079.63;5039905;28;20045;-79
2023/04/11 06:19:49;;;;;;;10.30;1.98;;;;;;;8.91;100.00;101084.13;5039081;28;20047;-78
2023/04/11 06:22:15;;;;;;;6.05;2.47;;;;;;;8.83;100.00;101084.19;5039290;28;20133;-79
2023/04/11 06:24:41;;;;;;;11.70;2.72;;;;;;;8.75;100.00;101087.75;5039351;28;20041;-78
2023/04/11 06:27:09;;;;;;;10.18;2.35;;;;;;;8.81;100.00;101088.03;5039728;28;20037;-78
2023/04/11 06:29:38;;;;;;;13.35;2.88;;;;;;;9.00;100.00;101071.56;5039514;28;20025;-79
2023/04/11 06:32:04;;;;;;;6.22;1.88;;;;;;;9.40;100.00;101091.59;5038655;28;20553;-76
2023/04/11 06:34:30;;;;;;;10.05;2.80;;;;;;;9.43;99.44;101082.44;5037859;28;20067;-79
2023/04/11 06:36:55;;;;;;;14.55;5.30;;;;;;;9.39;99.30;101079.31;5038762;28;20383;-76
2023/04/11 06:39:21;;;;;;;7.82;2.08;;;;;;;9.27;97.59;101087.94;5038901;28;20118;-73
2023/04/11 06:41:46;;;;;;;14.80;3.60;;;;;;;9.09;99.44;101085.59;5037991;28;20053;-74
2023/04/11 06:44:12;;;;;;;11.63;2.33;;;;;;;9.09;100.00;101086.47;5037674;28;20035;-72
2023/04/11 06:46:38;;;;;;;11.13;3.15;;;;;;;9.04;99.63;101083.50;5038283;28;20045;-77
2023/04/11 06:49:06;;;;;;;7.20;2.20;;;;;;;9.09;99.81;101094.44;5038587;28;20040;-75
2023/04/11 06:51:32;;;;;;;6.95;2.13;;;;;;;9.11;99.60;101088.91;5037410;28;20411;-75
2023/04/11 06:53:57;;;;;;;6.07;2.83;;;;;;;9.17;99.71;101099.69;5038005;28;20537;-75
2023/04/11 06:56:23;;;;;;;18.67;2.78;;;;;;;9.17;98.95;101099.69;5037698;28;20026;-75
2023/04/11 06:58:48;;;;;;;9.85;2.80;;;;;;;9.20;97.82;101096.66;5038178;28;20038;-75
2023/04/11 07:01:14;;;;;;;14.48;2.90;;;;;;;9.30;97.83;101101.72;5038347;28;20124;-75
2023/04/11 07:03:40;;;;;;;7.57;2.42;;;;;;;9.34;97.81;101110.97;5037027;28;20033;-76
2023/04/11 07:06:06;;;;;;;12.77;3.45;;;;;;;9.37;98.88;101107.94;5038303;28;20053;-76
2023/04/11 07:08:31;;;;;;;9.27;3.10;;;;;;;9.38;96.82;101108.81;5037943;28;20025;-76
2023/04/11 07:10:57;;;;;;;9.65;2.97;;;;;;;9.29;97.45;101093.91;5038098;28;20345;-76
2023/04/11 07:13:22;;;;;;;6.10;2.05;;;;;;;9.35;97.21;101114.47;5038036;28;20028;-76
2023/04/11 07:15:48;;;;;;;8.43;2.08;;;;;;;9.35;96.86;101120.63;5038604;28;20078;-76
2023/04/11 07:18:13;;;;;;;7.07;1.63;;;;;;;9.41;96.55;101119.91;5036472;28;20357;-76
2023/04/11 07:20:38;;;;;;;8.50;2.45;;;;;;;9.53;96.90;101119.44;5036378;28;20432;-76
2023/04/11 07:23:04;;;;;;;8.20;3.42;;;;;;;9.71;94.57;101135.06;5037987;28;20029;-76
2023/04/11 07:25:29;;;;;;;10.82;3.30;;;;;;;9.79;94.33;101137.63;5035117;28;20025;-76
2023/04/11 07:27:55;;;;;;;8.95;2.33;;;;;;;9.76;93.77;101141.47;5026129;28;20119;-74
2023/04/11 07:30:21;;;;;;;15.02;3.70;;;;;;;9.83;92.50;101134.41;5037151;28;20025;-80
2023/04/11 07:32:47;;;;;;;9.43;2.20;;;;;;;9.91;91.86;101130.00;5037842;28;20627;-80
2023/04/11 07:35:12;;;;;;;14.35;2.92;;;;;;;10.04;90.99;101135.50;5037869;28;20108;-80
2023/04/11 07:37:37;;;;;;;3.05;1.65;;;;;;;10.07;90.34;101125.28;5037909;28;20072;-80
2023/04/11 07:40:08;;;;;;;13.23;3.78;;;;;;;10.06;91.13;101138.78;5036277;28;20546;-81
2023/04/11 07:42:34;;;;;;;7.13;2.03;;;;;;;10.10;91.29;101127.56;5037976;28;20064;-79
2023/04/11 07:44:59;;;;;;;13.27;3.65;;;;;;;10.23;90.46;101158.88;5035409;28;20064;-79
2023/04/11 07:47:25;;;;;;;4.57;1.42;;;;;;;10.24;89.07;101151.72;5038466;28;20383;-81
2023/04/11 07:49:50;;;;;;;11.43;3.50;;;;;;;10.35;88.58;101150.44;5037933;28;20033;-80
2023/04/11 07:52:15;;;;;;;8.27;2.17;;;;;;;10.47;86.24;101156.94;5038444;28;20106;-79
2023/04/11 07:54:41;;;;;;;7.90;1.88;;;;;;;10.55;86.59;101150.66;5038145;28;20049;-80
2023/04/11 07:57:06;;;;;;;4.05;2.22;;;;;;;10.71;86.42;101166.41;5038765;28;20013;-79
2023/04/11 07:59:31;;;;;;;8.55;2.58;;;;;;;11.11;83.83;101148.13;5038127;28;20026;-76
2023/04/11 08:02:00;;;;;;;10.45;2.38;;;;;;;11.43;81.92;101157.41;5036532;28;20033;-77
2023/04/11 08:04:32;;;;;;;7.80;2.28;;;;;;;11.50;80.07;101157.44;5036943;28;20029;-75
2023/04/11 08:06:57;;;;;;;8.85;2.10;;;;;;;11.30;80.37;101170.66;5048352;28;20056;-74
2023/04/11 08:09:22;;;;;;;8.02;3.53;;;;;;;11.52;81.12;101168.75;5049884;28;20498;-74
2023/04/11 08:11:48;;;;;;;9.75;2.50;;;;;;;11.88;76.79;101173.13;5050382;28;20098;-76
2023/04/11 08:14:13;;;;;;;14.20;4.00;;;;;;;12.29;72.80;101165.09;5048515;28;20148;-75
2023/04/11 08:16:38;;;;;;;8.77;1.80;;;;;;;11.87;73.80;101168.78;5050333;28;20045;-74
2023/04/11 08:19:04;;;;;;;10.80;3.30;;;;;;;11.81;75.25;101189.09;5049535;28;20119;-74
2023/04/11 08:21:30;;;;;;;7.43;2.70;;;;;;;11.83;74.17;101187.03;5050050;28;20106;-74
2023/04/11 08:23:56;;;;;;;9.80;2.75;;;;;;;11.47;75.80;101187.22;5048883;28;20048;-74
2023/04/11 08:26:21;;;;;;;7.85;2.08;;;;;;;11.17;77.92;101192.72;5048657;28;20033;-74
2023/04/11 08:28:47;;;;;;;9.43;2.40;;;;;;;10.86;77.29;101190.38;5048585;28;20443;-74
2023/04/11 08:31:12;;;;;;;10.15;2.30;;;;;;;10.75;79.09;101191.72;5050459;28;20028;-74
2023/04/11 08:33:38;;;;;;;9.55;2.17;;;;;;;11.53;73.28;101200.63;5048583;28;20032;-74
2023/04/11 08:36:08;;;;;;;11.50;4.25;;;;;;;11.60;73.93;101192.66;5050154;28;20045;-74
2023/04/11 08:38:34;;;;;;;8.63;1.60;;;;;;;11.29;75.41;101207.22;5049535;28;20021;-73
2023/04/11 08:40:59;;;;;;;10.50;2.72;;;;;;;11.10;75.93;101218.53;5048792;28;20487;-74
2023/04/11 08:43:25;;;;;;;9.95;2.65;;;;;;;11.06;76.66;101218.09;5050091;28;20029;-74
2023/04/11 08:45:50;;;;;;;12.85;3.50;;;;;;;10.86;73.30;101211.72;5050030;28;20040;-74
2023/04/11 08:48:16;;;;;;;11.90;2.47;;;;;;;10.86;76.07;101203.72;5049927;28;20041;-74
2023/04/11 08:50:43;;;;;;;8.10;2.00;;;;;;;11.01;76.40;101212.50;5048576;28;20032;-74
2023/04/11 08:53:08;;;;;;;5.53;1.80;;;;;;;11.12;74.63;101222.66;5048758;28;20025;-74
2023/04/11 08:55:34;;;;;;;6.03;2.33;;;;;;;11.09;74.09;101216.91;5050138;28;20454;-74
2023/04/11 08:58:01;;;;;;;6.22;2.17;;;;;;;11.29;76.67;101209.03;5049960;28;20029;-74
2023/04/11 09:00:27;;;;;;;6.75;2.08;;;;;;;11.56;77.32;101200.22;5049982;28;20025;-74
2023/04/11 09:03:07;;;;;;;9.25;1.95;;;;;;;11.76;73.70;101194.19;5049865;28;20079;-74
2023/04/11 09:05:35;;;;;;;5.35;2.10;;;;;;;11.81;71.27;101210.47;5049859;28;20053;-74
2023/04/11 09:08:05;;;;;;;5.90;1.80;;;;;;;11.79;71.27;101212.53;5049723;28;20473;-74
2023/04/11 09:10:30;;;;;;;14.00;2.53;;;;;;;11.78;69.59;101213.53;5049798;28;20025;-74
2023/04/11 09:12:56;;;;;;;8.60;1.55;;;;;;;11.80;68.41;101195.47;5049724;28;20368;-74
2023/04/11 09:15:23;;;;;;;9.60;2.08;;;;;;;11.84;68.80;101194.88;5049621;28;20029;-74
2023/04/11 09:17:49;;;;;;;4.63;1.80;;;;;;;11.80;66.64;101206.16;5049633;28;20035;-74
2023/04/11 09:20:19;;;;;;;7.85;1.60;;;;;;;11.86;68.79;101213.41;5049630;28;20033;-74
2023/04/11 09:22:46;;;;;;;8.65;1.55;;;;;;;12.05;68.57;101211.88;5049771;28;20048;-74
2023/04/11 09:25:12;;;;;;;5.53;1.95;;;;;;;12.28;68.11;101203.56;5049510;28;20051;-74
2023/04/11 09:27:37;;;;;;;7.80;1.88;;;;;;;12.29;65.05;101215.91;5048372;28;20056;-74
2023/04/11 09:30:04;;;;;;;4.40;1.40;;;;;;;12.28;64.00;101222.28;5049470;28;20426;-74
2023/04/11 09:32:33;;;;;;;4.88;1.50;;;;;;;12.41;66.87;101214.31;5049585;28;20029;-74
2023/04/11 09:35:28;;;;;;;6.03;3.03;;;;;;;12.54;67.34;101204.69;5049452;28;20029;-74
2023/04/11 09:37:55;;;;;;;11.48;1.60;;;;;;;12.65;62.44;101207.63;5049031;28;20036;-74
2023/04/11 09:40:26;;;;;;;10.85;1.60;;;;;;;12.66;63.30;101211.94;5049388;28;20033;-74
2023/04/11 09:42:57;;;;;;;3.85;1.63;;;;;;;12.62;62.80;101221.38;5049549;28;20037;-74
2023/04/11 09:45:24;;;;;;;7.13;1.70;;;;;;;12.59;63.69;101221.78;5049315;28;20044;-74
2023/04/11 09:47:52;;;;;;;13.18;2.28;;;;;;;12.52;62.33;101215.56;5049215;28;20449;-74
2023/04/11 09:50:18;;;;;;;7.70;1.27;;;;;;;12.50;64.04;101223.00;5051540;28;20037;-74
2023/04/11 09:52:44;;;;;;;5.45;2.42;;;;;;;12.46;63.56;101225.22;5053483;28;20033;-74
2023/04/11 09:55:12;;;;;;;8.27;1.40;;;;;;;12.37;63.32;101214.91;5053498;28;20083;-74
2023/04/11 09:57:44;;;;;;;5.28;1.88;;;;;;;12.30;64.52;101222.91;5053445;28;20103;-74
2023/04/11 10:00:17;;;;;;;10.18;1.70;;;;;;;12.23;65.37;101222.03;5053365;28;20072;-74
2023/04/11 10:02:45;;;;;;;8.55;2.17;;;;;;;12.31;64.23;101223.72;5053292;28;20108;-74
2023/04/11 10:05:12;;;;;;;6.03;1.90;;;;;;;12.65;64.18;101231.69;5053132;28;20068;-74
2023/04/11 10:07:43;;;;;;;6.93;3.15;;;;;;;13.07;63.80;101224.38;5053177;28;20056;-74
2023/04/11 10:10:09;;;;;;;;;;;;;;;13.35;64.03;101223.41;5053574;28;20039;-74
2023/04/11 10:12:35;;;;;;;3.42;2.40;;;;;;;13.54;61.13;101227.91;5053308;28;19909;-74
2023/04/11 10:15:10;;;;;;;3.65;1.38;;;;;;;13.62;59.37;101236.78;5052728;28;20032;-74
2023/04/11 10:17:35;;;;;;;8.18;1.40;;;;;;;13.50;60.93;101220.53;5052110;28;20032;-74
2023/04/11 10:20:01;;;;;;;6.60;1.40;;;;;;;13.47;62.24;101240.50;5052576;28;20033;-74
2023/04/11 10:22:47;;;;;;;8.82;2.72;;;;;;;13.16;62.78;101233.84;5052944;28;20021;-74
2023/04/11 10:25:19;;;;;;;6.63;1.55;;;;;;;12.79;62.79;101240.59;5052900;28;20039;-74
2023/04/11 10:27:47;;;;;;;9.02;2.17;;;;;;;12.64;64.22;101239.91;5052850;28;20037;-74
2023/04/11 10:30:13;;;;;;;6.10;2.03;;;;;;;12.47;64.42;101234.06;5051443;28;20075;-74
2023/04/11 10:32:40;;;;;;;13.20;2.58;;;;;;;12.44;66.32;101231.81;5052740;28;20071;-73
2023/04/11 10:35:19;;;;;;;10.13;1.88;;;;;;;12.25;65.37;101239.53;5052752;28;20024;-74
2023/04/11 10:37:47;;;;;;;6.03;2.05;;;;;;;11.91;65.49;101237.69;5052549;28;20040;-74
2023/04/11 10:40:12;;;;;;;6.05;2.25;;;;;;;11.63;66.01;101243.88;5052807;28;20449;-73
2023/04/11 10:42:43;;;;;;;11.40;1.85;;;;;;;11.47;66.33;101238.78;5052668;28;20039;-73
2023/04/11 10:45:31;;;;;;;9.05;1.27;;;;;;;11.46;67.53;101234.47;5052623;28;20027;-73
2023/04/11 10:48:06;;;;;;;11.82;1.70;;;;;;;11.33;66.34;101240.53;5052378;28;20444;-74
2023/04/11 10:50:39;;;;;;;4.97;1.33;;;;;;;11.15;63.66;101246.31;5044257;28;20025;-76
2023/04/11 10:53:05;;;;;;;4.60;1.10;;;;;;;11.05;63.39;101240.44;5037968;28;20461;-78
2023/04/11 10:55:44;;;;;;;9.88;1.92;;;;;;;11.01;64.92;101239.19;5038125;28;20053;-74
2023/04/11 10:58:21;;;;;;;3.47;1.10;;;;;;;10.85;65.06;101236.78;5037531;28;20040;-77
2023/04/11 11:00:46;;;;;;;8.80;2.13;;;;;;;10.89;66.96;101246.03;5037128;28;20484;-77
2023/04/11 11:03:15;;;;;;;7.18;1.55;;;;;;;10.99;64.10;101245.75;5038812;28;20071;-79
2023/04/11 11:05:41;;;;;;;6.63;2.20;;;;;;;11.04;64.89;101248.66;5037089;28;20063;-74
2023/04/11 11:08:07;;;;;;;7.60;2.25;;;;;;;11.06;64.70;101241.31;5037712;28;20033;-72
2023/04/11 11:10:47;;;;;;;4.47;1.60;;;;;;;11.18;62.17;101247.75;5038198;28;20099;-71
2023/04/11 11:13:15;;;;;;;4.97;1.00;;;;;;;11.37;57.68;101244.47;5037224;28;20044;-72
2023/04/11 11:15:48;;;;;;;3.33;1.27;;;;;;;11.69;56.35;101244.09;5038086;28;20120;-71
2023/04/11 11:18:15;;;;;;;4.38;0.95;;;;;;;12.12;57.37;101239.47;5037250;28;20075;-71
2023/04/11 11:20:40;;;;;;;3.53;1.35;;;;;;;12.54;55.13;101242.16;5036619;28;20028;-72